Time;durP1;ratioP1;P1;durP2;ratioP2;P2;SDS_P1;SDS_P2;PMS_P1;PMS_P2;Temp;Humidity;BMP_temperature;BMP_pressure;BME280_temperature;BME280_humidity;BME280_pressure;Samples;Min_cycle;Max_cycle;Signal;HPM_P1;HPM_P2
2023/10/02 00:03:39;;;;;;;8.52;1.50;;;;;;;12.50;100.00;100682.22;5125308;27;20051;-65
2023/10/02 00:06:16;;;;;;;11.23;1.77;;;;;;;12.48;100.00;100684.06;5124794;27;20063;-65
2023/10/02 00:08:48;;;;;;;6.78;1.60;;;;;;;12.45;100.00;100681.63;5115236;27;20446;-65
2023/10/02 00:11:37;;;;;;;8.20;1.60;;;;;;;12.48;100.00;100681.44;5120561;27;20100;-65
2023/10/02 00:14:20;;;;;;;6.53;1.98;;;;;;;12.41;100.00;100674.78;5125230;27;20551;-65
2023/10/02 00:16:59;;;;;;;11.77;2.38;;;;;;;12.43;100.00;100679.06;5116564;27;20039;-65
2023/10/02 00:19:35;;;;;;;7.63;2.05;;;;;;;12.40;100.00;100678.34;5114044;27;20092;-65
2023/10/02 00:22:06;;;;;;;16.23;2.97;;;;;;;12.47;100.00;100674.50;5129018;27;20058;-65
2023/10/02 00:24:40;;;;;;;5.72;1.60;;;;;;;12.48;100.00;100665.69;5127871;27;20485;-65
2023/10/02 00:27:08;;;;;;;9.30;1.58;;;;;;;12.52;100.00;100662.88;5125841;27;20396;-65
2023/10/02 00:29:51;;;;;;;7.13;2.05;;;;;;;12.58;100.00;100666.97;5125439;27;20162;-65
2023/10/02 00:32:19;;;;;;;9.50;2.50;;;;;;;12.79;100.00;100675.63;5123777;27;20053;-65
2023/10/02 00:34:47;;;;;;;6.32;1.60;;;;;;;12.75;100.00;100655.69;5125543;27;20047;-65
2023/10/02 00:37:15;;;;;;;8.15;1.50;;;;;;;12.92;100.00;100667.97;5125052;27;20043;-65
2023/10/02 00:39:47;;;;;;;11.73;2.08;;;;;;;12.97;100.00;100655.47;5127013;27;20066;-65
2023/10/02 00:42:24;;;;;;;6.55;2.00;;;;;;;13.05;100.00;100666.47;5123556;27;20043;-65
2023/10/02 00:44:57;;;;;;;8.60;2.05;;;;;;;13.06;100.00;100664.69;5121619;27;20054;-65
2023/10/02 00:47:38;;;;;;;9.43;2.10;;;;;;;13.16;100.00;100675.63;5121258;27;20122;-65
2023/10/02 00:50:16;;;;;;;8.10;1.75;;;;;;;13.18;100.00;100685.13;5120082;27;20397;-65
2023/10/02 00:53:03;;;;;;;10.95;2.00;;;;;;;13.24;100.00;100676.06;5112646;27;20643;-65
2023/10/02 00:55:35;;;;;;;8.18;1.88;;;;;;;13.29;100.00;100681.94;5120619;27;20047;-65
2023/10/02 00:58:08;;;;;;;8.65;2.08;;;;;;;13.27;100.00;100686.44;5118428;27;20054;-65
2023/10/02 01:00:35;;;;;;;9.95;2.20;;;;;;;13.22;100.00;100676.13;5115961;27;20050;-65
2023/10/02 01:03:08;;;;;;;7.70;1.80;;;;;;;13.36;100.00;100687.78;5123793;27;20055;-65
2023/10/02 01:06:11;;;;;;;5.22;1.50;;;;;;;13.40;100.00;100676.19;5127844;27;20047;-65
2023/10/02 01:08:43;;;;;;;13.77;2.15;;;;;;;13.42;100.00;100682.22;5116463;27;20047;-65
2023/10/02 01:11:13;;;;;;;10.45;1.98;;;;;;;13.23;100.00;100656.81;5123645;27;20050;-65
2023/10/02 01:13:42;;;;;;;9.60;2.30;;;;;;;13.44;100.00;100678.59;5117351;27;20100;-65
2023/10/02 01:16:09;;;;;;;6.80;1.48;;;;;;;13.44;100.00;100672.50;5124953;27;20131;-65
2023/10/02 01:18:37;;;;;;;8.00;1.73;;;;;;;13.47;100.00;100678.44;5124933;27;20446;-65
2023/10/02 01:21:12;;;;;;;11.25;2.08;;;;;;;13.36;100.00;100648.34;5124826;27;20059;-65
2023/10/02 01:24:08;;;;;;;6.55;1.50;;;;;;;13.58;100.00;100670.00;5125761;27;20043;-65
2023/10/02 01:26:43;;;;;;;7.07;1.70;;;;;;;13.50;100.00;100669.53;5123711;28;20055;-65
2023/10/02 01:29:13;;;;;;;7.65;1.95;;;;;;;13.37;100.00;100663.19;5127562;27;20134;-65
2023/10/02 01:31:44;;;;;;;7.32;1.58;;;;;;;13.49;100.00;100675.72;5126591;28;20054;-65
2023/10/02 01:37:32;;;;;;;8.95;2.30;;;;;;;13.39;100.00;100656.09;5119069;27;20047;-65
2023/10/02 01:39:49;;;;;;;7.38;1.77;;;;;;;13.46;100.00;100652.22;5129929;27;20039;-65
2023/10/02 01:42:16;;;;;;;6.18;1.50;;;;;;;13.52;100.00;100648.44;5118495;27;20058;-65
2023/10/02 01:44:55;;;;;;;8.02;1.75;;;;;;;13.41;100.00;100646.34;5124700;27;20054;-65
2023/10/02 01:47:22;;;;;;;7.03;1.65;;;;;;;13.43;100.00;100655.84;5129938;27;20467;-65
2023/10/02 01:50:00;;;;;;;6.57;1.50;;;;;;;13.28;100.00;100646.94;5110751;27;20040;-65
2023/10/02 01:52:27;;;;;;;5.07;1.40;;;;;;;13.15;100.00;100647.63;5131378;27;20135;-65
2023/10/02 01:55:14;;;;;;;7.85;1.70;;;;;;;13.08;100.00;100650.56;5108639;27;20055;-65
2023/10/02 01:57:41;;;;;;;8.98;1.70;;;;;;;13.00;100.00;100646.59;5120108;27;20374;-65
2023/10/02 02:00:13;;;;;;;5.85;1.52;;;;;;;12.91;100.00;100656.63;5114631;27;20039;-65
2023/10/02 02:02:41;;;;;;;5.72;1.75;;;;;;;12.84;100.00;100651.75;5118769;27;20047;-65
2023/10/02 02:05:14;;;;;;;8.13;1.63;;;;;;;12.70;100.00;100642.75;5126348;27;20484;-65
2023/10/02 02:07:41;;;;;;;8.90;2.03;;;;;;;12.43;100.00;100639.66;5129326;27;20047;-65
2023/10/02 02:10:08;;;;;;;8.57;1.83;;;;;;;12.50;100.00;100648.97;5126896;27;20071;-66
2023/10/02 02:12:44;;;;;;;4.78;1.42;;;;;;;12.43;100.00;100646.66;5133337;27;20047;-64
2023/10/02 02:15:11;;;;;;;8.05;1.70;;;;;;;12.24;100.00;100651.94;5129072;27;20088;-64
2023/10/02 02:17:38;;;;;;;6.10;1.83;;;;;;;12.07;100.00;100657.94;5128298;27;20043;-65
2023/10/02 02:20:13;;;;;;;6.20;1.75;;;;;;;12.11;100.00;100654.25;5121614;27;20074;-64
2023/10/02 02:22:42;;;;;;;6.45;1.67;;;;;;;12.04;100.00;100661.56;5129137;27;20047;-64
2023/10/02 02:25:09;;;;;;;5.68;1.35;;;;;;;12.12;100.00;100674.34;5129349;27;20047;-64
2023/10/02 02:27:36;;;;;;;7.28;1.77;;;;;;;12.11;100.00;100663.00;5118130;27;20652;-64
2023/10/02 02:30:10;;;;;;;11.00;1.92;;;;;;;12.18;100.00;100667.97;5134303;27;20407;-65
2023/10/02 02:32:43;;;;;;;6.07;1.55;;;;;;;12.14;100.00;100673.34;5131907;27;20051;-65
2023/10/02 02:35:14;;;;;;;5.75;1.27;;;;;;;11.97;100.00;100662.78;5120907;27;20097;-64
2023/10/02 02:37:41;;;;;;;7.25;1.65;;;;;;;11.96;100.00;100664.53;5121532;27;20052;-65
2023/10/02 02:40:27;;;;;;;8.75;1.77;;;;;;;11.86;100.00;100659.72;5112036;28;20128;-65
2023/10/02 02:42:56;;;;;;;5.75;1.33;;;;;;;11.82;100.00;100652.91;5116002;27;20139;-64
2023/10/02 02:45:28;;;;;;;10.10;2.40;;;;;;;11.78;100.00;100649.56;5124306;27;20142;-64
2023/10/02 02:47:57;;;;;;;7.13;1.63;;;;;;;11.83;100.00;100662.47;5121480;27;20051;-65
2023/10/02 02:50:33;;;;;;;7.78;1.42;;;;;;;11.78;100.00;100657.44;5121262;27;20047;-65
2023/10/02 02:55:57;;;;;;;5.80;1.48;;;;;;;11.73;100.00;100660.25;5111944;28;20055;-65
2023/10/02 02:58:25;;;;;;;5.30;1.58;;;;;;;11.61;100.00;100646.84;5124013;27;20137;-65
2023/10/02 03:00:55;;;;;;;7.25;1.55;;;;;;;11.54;100.00;100647.13;5145851;27;20126;-65
2023/10/02 03:03:41;;;;;;;9.18;1.92;;;;;;;11.43;100.00;100643.22;5114552;27;20055;-65
2023/10/02 03:06:22;;;;;;;5.28;1.50;;;;;;;11.42;100.00;100639.78;5123316;27;20112;-65
2023/10/02 03:08:51;;;;;;;3.88;1.30;;;;;;;11.37;100.00;100623.38;5145148;27;20043;-65
2023/10/02 03:11:28;;;;;;;4.20;1.30;;;;;;;11.43;100.00;100630.97;5121193;27;20538;-65
2023/10/02 03:14:12;;;;;;;7.75;1.73;;;;;;;11.25;100.00;100626.53;5138330;27;20049;-65
2023/10/02 03:16:39;;;;;;;9.35;1.95;;;;;;;11.15;100.00;100613.78;5131869;27;20459;-64
2023/10/02 03:19:07;;;;;;;5.25;1.50;;;;;;;11.19;100.00;100624.97;5129280;27;20096;-64
2023/10/02 03:21:38;;;;;;;4.75;1.45;;;;;;;11.09;100.00;100627.16;5124327;27;20065;-64
2023/10/02 03:24:07;;;;;;;6.88;1.75;;;;;;;11.09;100.00;100635.00;5134438;27;20514;-64
2023/10/02 03:29:05;;;;;;;4.80;1.35;;;;;;;11.00;100.00;100622.31;5117105;27;20040;-64
2023/10/02 03:31:35;;;;;;;4.80;1.25;;;;;;;11.00;100.00;100630.16;5113674;27;20499;-64
2023/10/02 03:36:55;;;;;;;3.25;1.17;;;;;;;10.93;100.00;100624.31;5122452;27;20051;-64
2023/10/02 03:39:51;;;;;;;4.72;1.23;;;;;;;10.90;100.00;100621.81;5128876;27;20039;-64
2023/10/02 03:42:12;;;;;;;6.38;1.88;;;;;;;10.78;100.00;100599.59;5130589;27;20417;-64
2023/10/02 03:44:45;;;;;;;7.32;1.75;;;;;;;10.69;100.00;100596.50;5131632;27;20057;-64
2023/10/02 03:47:15;;;;;;;5.75;1.63;;;;;;;10.81;100.00;100609.94;5125024;27;20056;-64
2023/10/02 03:49:45;;;;;;;5.53;1.38;;;;;;;10.77;100.00;100607.53;5130824;27;20047;-65
2023/10/02 03:52:14;;;;;;;5.10;1.27;;;;;;;10.66;100.00;100613.19;5130283;27;20194;-64
2023/10/02 03:54:43;;;;;;;7.15;1.88;;;;;;;10.56;100.00;100604.84;5128714;27;20561;-64
2023/10/02 03:57:37;;;;;;;7.32;1.70;;;;;;;10.52;100.00;100605.03;5130614;27;20131;-64
2023/10/02 04:02:52;;;;;;;4.18;1.30;;;;;;;10.52;100.00;100610.28;5130044;27;20039;-64
2023/10/02 04:05:32;;;;;;;6.45;1.58;;;;;;;10.45;100.00;100612.28;5131341;27;20051;-64
2023/10/02 04:10:55;;;;;;;7.20;1.90;;;;;;;10.36;100.00;100603.00;5129587;27;20082;-64
2023/10/02 04:13:31;;;;;;;8.43;1.65;;;;;;;10.32;100.00;100596.16;5129752;27;20046;-64
2023/10/02 04:18:49;;;;;;;6.40;1.67;;;;;;;10.40;100.00;100591.50;5125232;27;20043;-64
2023/10/02 04:21:25;;;;;;;5.25;1.60;;;;;;;10.59;100.00;100596.88;5130789;27;20515;-64
2023/10/02 04:23:56;;;;;;;6.50;1.73;;;;;;;10.63;100.00;100597.59;5124611;27;20047;-64
2023/10/02 04:26:24;;;;;;;5.70;1.50;;;;;;;10.71;100.00;100597.28;5130332;27;20144;-64
2023/10/02 04:28:58;;;;;;;9.57;2.25;;;;;;;10.76;100.00;100601.41;5127635;27;20046;-64
2023/10/02 04:31:27;;;;;;;4.85;1.30;;;;;;;10.82;100.00;100605.56;5116999;27;20281;-65
2023/10/02 04:36:43;;;;;;;8.05;1.65;;;;;;;10.88;100.00;100594.84;5117322;27;20530;-64
2023/10/02 04:42:12;;;;;;;6.07;1.85;;;;;;;10.97;100.00;100601.47;5130489;27;20061;-65
2023/10/02 04:44:58;;;;;;;9.77;1.98;;;;;;;11.01;100.00;100596.03;5115143;27;20511;-65
2023/10/02 04:47:27;;;;;;;10.15;1.92;;;;;;;11.14;100.00;100599.00;5119391;27;20492;-65
2023/10/02 04:55:24;;;;;;;7.18;1.85;;;;;;;11.27;100.00;100594.06;5124924;27;20050;-65
2023/10/02 04:57:56;;;;;;;9.10;1.80;;;;;;;11.18;100.00;100600.56;5116031;27;20630;-65
2023/10/02 05:00:32;;;;;;;10.60;2.38;;;;;;;11.16;100.00;100586.66;5110576;28;20043;-65
2023/10/02 05:03:25;;;;;;;7.03;1.75;;;;;;;11.17;100.00;100601.50;5110024;27;20483;-65
2023/10/02 05:05:55;;;;;;;6.90;1.80;;;;;;;11.15;100.00;100598.06;5122388;27;20051;-65
2023/10/02 05:11:26;;;;;;;9.88;2.50;;;;;;;11.21;100.00;100610.06;5087636;27;20058;-65
2023/10/02 05:16:29;;;;;;;8.98;1.90;;;;;;;11.26;100.00;100618.59;5135775;27;20138;-65
2023/10/02 05:18:56;;;;;;;7.20;1.90;;;;;;;11.25;100.00;100623.91;5129621;27;20054;-65
2023/10/02 05:21:36;;;;;;;9.38;2.13;;;;;;;11.23;100.00;100620.50;5128689;27;20094;-65
2023/10/02 05:24:11;;;;;;;10.55;1.90;;;;;;;11.09;100.00;100595.72;5121890;27;20097;-65
2023/10/02 05:26:41;;;;;;;9.73;2.00;;;;;;;11.29;100.00;100621.06;5111223;27;20135;-65
2023/10/02 05:29:17;;;;;;;7.95;1.73;;;;;;;11.26;100.00;100626.47;5119994;27;20126;-65
2023/10/02 05:31:45;;;;;;;15.50;2.75;;;;;;;11.29;100.00;100647.28;5129876;27;20051;-65
2023/10/02 05:34:21;;;;;;;7.78;2.15;;;;;;;11.32;100.00;100635.84;5128977;27;20051;-65
2023/10/02 05:39:39;;;;;;;9.95;2.47;;;;;;;11.43;100.00;100648.47;5117639;27;20043;-65
2023/10/02 05:42:07;;;;;;;11.80;2.00;;;;;;;11.37;100.00;100658.31;5125402;27;20058;-65
2023/10/02 05:44:34;;;;;;;11.18;2.40;;;;;;;11.47;100.00;100657.91;5129233;27;20617;-65
2023/10/02 05:47:05;;;;;;;10.70;2.40;;;;;;;11.52;100.00;100666.44;5124328;27;20052;-65
2023/10/02 05:49:36;;;;;;;10.40;2.10;;;;;;;11.37;100.00;100649.59;5120885;27;20131;-65
2023/10/02 05:52:07;;;;;;;10.77;2.60;;;;;;;11.56;100.00;100662.75;5120168;27;20047;-65
2023/10/02 05:54:47;;;;;;;7.50;1.90;;;;;;;11.43;100.00;100638.84;5128065;27;20047;-65
2023/10/02 05:57:14;;;;;;;9.45;2.00;;;;;;;11.57;100.00;100648.75;5125740;27;20322;-65
2023/10/02 05:59:45;;;;;;;8.98;1.95;;;;;;;11.58;100.00;100656.53;5127987;27;20043;-65
2023/10/02 06:02:19;;;;;;;10.10;1.98;;;;;;;11.68;100.00;100645.66;5124302;27;20043;-65
2023/10/02 06:04:48;;;;;;;10.43;2.33;;;;;;;11.53;100.00;100642.78;5131882;27;20497;-65
2023/10/02 06:07:19;;;;;;;10.20;2.28;;;;;;;11.55;100.00;100637.47;5129175;27;20051;-65
2023/10/02 06:09:46;;;;;;;8.68;1.95;;;;;;;11.47;100.00;100619.41;5127521;27;20134;-65
2023/10/02 06:12:14;;;;;;;7.90;2.30;;;;;;;11.44;100.00;100621.31;5128135;27;20047;-65
2023/10/02 06:14:45;;;;;;;7.13;1.63;;;;;;;11.54;100.00;100635.75;5119661;27;20054;-65
2023/10/02 06:17:12;;;;;;;12.73;3.08;;;;;;;11.47;100.00;100626.44;5120285;27;20051;-65
2023/10/02 06:19:43;;;;;;;11.30;2.55;;;;;;;11.48;100.00;100625.53;5115612;27;20055;-65
2023/10/02 06:22:13;;;;;;;11.27;2.03;;;;;;;11.48;100.00;100617.69;5122483;27;20150;-65
2023/10/02 06:24:42;;;;;;;11.15;2.08;;;;;;;11.52;100.00;100619.25;5121925;27;20047;-65
2023/10/02 06:27:16;;;;;;;7.90;2.10;;;;;;;11.50;100.00;100624.53;5129114;27;20047;-65
2023/10/02 06:29:51;;;;;;;10.07;2.53;;;;;;;11.54;100.00;100622.63;5127462;27;20047;-65
2023/10/02 06:32:22;;;;;;;8.35;1.85;;;;;;;11.56;100.00;100624.28;5130503;27;20116;-65
2023/10/02 06:34:57;;;;;;;10.43;2.63;;;;;;;11.57;100.00;100622.50;5129813;27;20046;-65
2023/10/02 06:37:35;;;;;;;10.85;2.15;;;;;;;11.61;100.00;100620.59;5125283;27;20039;-65
2023/10/02 06:40:12;;;;;;;10.80;2.03;;;;;;;11.59;100.00;100629.38;5129790;27;20043;-65
2023/10/02 06:42:49;;;;;;;6.93;1.63;;;;;;;11.62;100.00;100630.19;5122942;27;20043;-65
2023/10/02 06:45:18;;;;;;;9.07;2.47;;;;;;;11.60;100.00;100635.50;5123570;27;20039;-65
2023/10/02 06:47:44;;;;;;;9.43;2.45;;;;;;;11.60;100.00;100627.63;5118554;27;20134;-65
2023/10/02 06:52:58;;;;;;;7.63;2.03;;;;;;;11.74;100.00;100633.13;5120447;27;20054;-65
2023/10/02 06:55:27;;;;;;;10.48;1.98;;;;;;;11.76;100.00;100639.16;5132292;27;20300;-65
2023/10/02 06:57:53;;;;;;;7.88;1.80;;;;;;;11.69;100.00;100632.47;5127579;27;20044;-65
2023/10/02 07:00:21;;;;;;;15.45;3.47;;;;;;;11.83;100.00;100659.84;5132412;27;20053;-67
2023/10/02 07:02:57;;;;;;;9.50;2.30;;;;;;;11.79;100.00;100643.41;5131019;27;20132;-67
2023/10/02 07:05:27;;;;;;;7.10;2.00;;;;;;;11.88;100.00;100644.75;5134935;27;20051;-67
2023/10/02 07:08:01;;;;;;;9.73;2.80;;;;;;;11.91;100.00;100649.91;5130914;27;20053;-67
2023/10/02 07:10:41;;;;;;;7.47;1.90;;;;;;;11.96;100.00;100661.91;5129777;27;20039;-67
2023/10/02 07:13:19;;;;;;;9.73;2.00;;;;;;;12.01;100.00;100656.47;5131641;27;20051;-67
2023/10/02 07:15:55;;;;;;;9.15;2.10;;;;;;;12.10;100.00;100656.03;5131645;27;20425;-67
2023/10/02 07:18:36;;;;;;;13.50;2.55;;;;;;;12.06;100.00;100656.25;5129574;27;20567;-67
2023/10/02 07:21:07;;;;;;;11.00;2.60;;;;;;;12.06;100.00;100646.59;5130100;27;20050;-67
2023/10/02 07:23:38;;;;;;;11.57;2.50;;;;;;;12.14;100.00;100647.09;5130384;27;20078;-65
2023/10/02 07:26:45;;;;;;;8.45;2.60;;;;;;;12.34;100.00;100655.81;5132700;27;20135;-65
2023/10/02 07:29:08;;;;;;;10.85;2.30;;;;;;;12.37;100.00;100653.06;5125336;27;20074;-65
2023/10/02 07:31:36;;;;;;;6.78;1.90;;;;;;;12.44;100.00;100633.47;5119296;27;20126;-65
2023/10/02 07:34:07;;;;;;;9.85;1.95;;;;;;;12.39;100.00;100637.25;5129081;27;20130;-65
2023/10/02 07:36:44;;;;;;;6.38;1.73;;;;;;;12.34;100.00;100627.81;5127417;27;20488;-65
2023/10/02 07:42:04;;;;;;;9.63;2.42;;;;;;;12.44;100.00;100630.00;5131042;27;20067;-65
2023/10/02 07:44:38;;;;;;;11.60;2.58;;;;;;;12.41;100.00;100632.78;5129399;27;20096;-65
2023/10/02 07:49:52;;;;;;;11.18;2.22;;;;;;;12.60;100.00;100617.00;5132900;27;20073;-65
2023/10/02 07:52:43;;;;;;;6.88;2.03;;;;;;;12.58;100.00;100614.44;5130931;27;20054;-65
2023/10/02 07:55:10;;;;;;;10.35;2.17;;;;;;;12.57;100.00;100633.78;5130204;27;20104;-65
2023/10/02 07:57:38;;;;;;;15.32;2.20;;;;;;;12.63;100.00;100630.00;5128224;27;20385;-66
2023/10/02 08:00:33;;;;;;;10.45;2.47;;;;;;;12.86;100.00;100632.34;5119703;27;20051;-65
2023/10/02 08:02:53;;;;;;;9.00;2.30;;;;;;;12.79;100.00;100609.09;5131323;27;20176;-65
2023/10/02 08:05:20;;;;;;;9.88;2.42;;;;;;;12.86;100.00;100628.88;5131450;27;20050;-65
2023/10/02 08:07:47;;;;;;;18.75;3.08;;;;;;;12.65;100.00;100618.47;5136450;27;20321;-65
2023/10/02 08:10:15;;;;;;;11.93;3.10;;;;;;;12.69;100.00;100616.56;5130160;27;20051;-65
2023/10/02 08:12:54;;;;;;;15.60;3.22;;;;;;;12.79;100.00;100622.22;5130358;27;20047;-65
2023/10/02 08:15:32;;;;;;;12.30;2.83;;;;;;;12.81;100.00;100612.50;5124032;27;20067;-65
2023/10/02 08:18:03;;;;;;;10.43;2.63;;;;;;;12.85;100.00;100622.75;5123181;27;20056;-65
2023/10/02 08:20:37;;;;;;;11.82;3.03;;;;;;;12.94;100.00;100610.94;5130006;27;20457;-65
2023/10/02 08:23:21;;;;;;;12.00;2.55;;;;;;;12.95;100.00;100596.03;5130187;27;20055;-65
2023/10/02 08:26:00;;;;;;;10.20;2.45;;;;;;;13.46;100.00;100631.19;5130748;27;20145;-66
2023/10/02 08:28:48;;;;;;;11.70;3.55;;;;;;;13.51;100.00;100618.66;5120238;27;20051;-65
2023/10/02 08:31:14;;;;;;;16.40;3.75;;;;;;;13.46;100.00;100612.78;5129883;27;20047;-65
2023/10/02 08:33:43;;;;;;;12.30;2.45;;;;;;;13.55;100.00;100603.56;5130614;27;20050;-65
2023/10/02 08:36:28;;;;;;;11.18;2.78;;;;;;;13.53;100.00;100603.63;5128632;27;20043;-65
2023/10/02 08:38:55;;;;;;;15.63;3.08;;;;;;;13.47;100.00;100607.44;5125004;27;20553;-66
2023/10/02 08:41:44;;;;;;;12.40;3.10;;;;;;;13.50;100.00;100605.56;5121946;27;20087;-65
2023/10/02 08:44:15;;;;;;;12.57;3.42;;;;;;;13.59;100.00;100605.09;5116873;27;20480;-65
2023/10/02 08:46:48;;;;;;;11.75;2.55;;;;;;;13.80;100.00;100597.84;5130100;27;20526;-65
2023/10/02 08:49:16;;;;;;;14.07;2.88;;;;;;;13.60;100.00;100593.66;5123343;27;20090;-66
2023/10/02 08:51:48;;;;;;;17.20;2.83;;;;;;;13.76;100.00;100604.22;5122515;27;20158;-65
2023/10/02 08:54:17;;;;;;;12.07;2.72;;;;;;;13.74;100.00;100596.41;5127635;27;20078;-66
2023/10/02 08:56:45;;;;;;;11.98;2.75;;;;;;;13.72;100.00;100608.75;5129744;27;20400;-66
2023/10/02 08:59:26;;;;;;;10.93;2.67;;;;;;;13.97;100.00;100600.44;5121573;27;20078;-65
2023/10/02 09:02:05;;;;;;;13.07;2.97;;;;;;;13.90;100.00;100596.44;5122132;27;20126;-66
2023/10/02 09:04:32;;;;;;;8.85;2.90;;;;;;;13.99;100.00;100584.56;5115129;27;20047;-66
2023/10/02 09:07:14;;;;;;;10.35;2.45;;;;;;;14.14;100.00;100591.59;5129001;27;20245;-66
2023/10/02 09:09:45;;;;;;;7.82;2.28;;;;;;;14.34;100.00;100593.16;5134254;27;20046;-66
2023/10/02 09:12:16;;;;;;;10.40;2.53;;;;;;;14.56;100.00;100587.50;5136851;27;20047;-66
2023/10/02 09:14:43;;;;;;;14.93;3.08;;;;;;;14.64;100.00;100587.09;5138625;27;20055;-66
2023/10/02 09:17:21;;;;;;;9.45;2.60;;;;;;;14.57;100.00;100581.31;5134909;27;20081;-66
2023/10/02 09:20:03;;;;;;;12.88;2.92;;;;;;;14.63;100.00;100588.06;5143135;27;20045;-66
2023/10/02 09:22:37;;;;;;;13.27;2.63;;;;;;;14.77;100.00;100585.47;5128918;28;20051;-66
2023/10/02 09:25:10;;;;;;;11.00;2.92;;;;;;;14.91;100.00;100573.25;5129183;27;20053;-66
2023/10/02 09:27:41;;;;;;;11.80;3.28;;;;;;;14.96;100.00;100579.13;5124093;27;20132;-66
2023/10/02 09:30:16;;;;;;;11.73;2.95;;;;;;;15.20;100.00;100574.19;5142895;27;20096;-66
2023/10/02 09:32:51;;;;;;;13.98;2.47;;;;;;;15.42;100.00;100570.28;5146097;27;20050;-66
2023/10/02 09:35:42;;;;;;;10.93;2.90;;;;;;;15.49;100.00;100572.47;5120578;27;20053;-68
2023/10/02 09:38:32;;;;;;;11.73;2.40;;;;;;;15.53;100.00;100571.31;5129960;27;20099;-68
2023/10/02 09:43:35;;;;;;;14.88;3.40;;;;;;;15.68;100.00;100551.06;5131275;27;20475;-68
2023/10/02 09:46:06;;;;;;;11.70;2.92;;;;;;;15.63;100.00;100553.13;5131199;27;20122;-68
2023/10/02 09:49:01;;;;;;;17.17;2.72;;;;;;;16.04;100.00;100562.94;5125781;27;20046;-68
2023/10/02 09:52:09;;;;;;;11.43;2.85;;;;;;;15.71;100.00;100544.75;5125692;27;20054;-68
2023/10/02 09:54:41;;;;;;;15.85;3.55;;;;;;;15.56;100.00;100570.28;5122660;27;20039;-68
2023/10/02 09:57:16;;;;;;;15.15;2.78;;;;;;;15.09;100.00;100566.09;5132025;27;20043;-68
2023/10/02 09:59:46;;;;;;;17.23;3.88;;;;;;;15.14;100.00;100558.75;5131837;27;20086;-68
2023/10/02 10:07:52;;;;;;;14.55;2.72;;;;;;;15.55;100.00;100560.69;5131221;27;20075;-67
2023/10/02 10:10:48;;;;;;;14.00;2.58;;;;;;;15.64;100.00;100560.09;5133339;27;20054;-68
2023/10/02 10:13:26;;;;;;;13.63;3.28;;;;;;;15.50;100.00;100558.31;5120798;27;20051;-67
2023/10/02 10:16:20;;;;;;;8.13;2.15;;;;;;;15.47;100.00;100565.56;5133326;27;20043;-67
2023/10/02 10:27:37;;;;;;;14.07;3.10;;;;;;;16.22;100.00;100562.69;5139253;27;20135;-67
2023/10/02 10:30:19;;;;;;;15.70;2.80;;;;;;;16.25;100.00;100565.16;5118419;27;20132;-68
2023/10/02 10:32:47;;;;;;;14.77;3.35;;;;;;;16.26;100.00;100541.28;5132802;27;20500;-68
2023/10/02 10:35:35;;;;;;;11.20;2.83;;;;;;;16.47;100.00;100549.59;5131418;27;20085;-68
2023/10/02 10:40:59;;;;;;;13.30;2.80;;;;;;;16.69;100.00;100533.16;5143769;27;20043;-68
2023/10/02 10:46:27;;;;;;;12.70;2.83;;;;;;;17.15;100.00;100533.72;5132530;27;20043;-64
2023/10/02 10:49:23;;;;;;;;;;;;;;;16.96;100.00;100537.59;5129922;27;20130;-64
2023/10/02 10:51:52;;;;;;;10.82;2.72;;;;;;;17.14;100.00;100527.59;5130621;27;20010;-64
2023/10/02 10:54:25;;;;;;;11.63;2.65;;;;;;;16.64;100.00;100516.78;5130507;27;20061;-64
2023/10/02 10:57:27;;;;;;;12.57;2.60;;;;;;;17.15;100.00;100516.03;5113248;27;20047;-64
2023/10/02 11:03:07;;;;;;;9.73;2.30;;;;;;;17.26;100.00;100513.50;5127263;27;20055;-64
2023/10/02 11:05:37;;;;;;;19.02;2.47;;;;;;;17.35;100.00;100524.38;5131393;27;20053;-64
2023/10/02 11:08:23;;;;;;;11.35;2.17;;;;;;;17.53;100.00;100512.53;5124951;27;20059;-64
2023/10/02 11:11:18;;;;;;;13.77;2.50;;;;;;;17.45;100.00;100518.34;5125654;27;20126;-64
2023/10/02 11:14:20;;;;;;;14.98;2.78;;;;;;;17.01;100.00;100503.75;5127576;27;20089;-65
2023/10/02 11:16:50;;;;;;;13.85;2.80;;;;;;;17.18;100.00;100520.28;5127554;27;20491;-64
2023/10/02 11:19:26;;;;;;;12.75;2.85;;;;;;;16.89;100.00;100505.44;5128503;27;20051;-64
2023/10/02 11:22:22;;;;;;;11.60;2.35;;;;;;;17.07;100.00;100505.16;5129460;27;20079;-64
2023/10/02 11:24:53;;;;;;;13.10;2.45;;;;;;;16.91;100.00;100507.13;5122903;27;20146;-64
2023/10/02 11:27:24;;;;;;;11.95;2.17;;;;;;;17.12;100.00;100504.81;5114737;27;20142;-64
2023/10/02 11:30:01;;;;;;;13.85;2.45;;;;;;;17.02;100.00;100488.75;5131961;27;20583;-64
2023/10/02 11:32:58;;;;;;;10.75;2.22;;;;;;;17.15;100.00;100488.75;5132537;27;20043;-64
2023/10/02 11:35:28;;;;;;;10.55;2.15;;;;;;;17.11;100.00;100476.69;5132613;27;20051;-64
2023/10/02 11:37:57;;;;;;;10.13;2.55;;;;;;;16.94;100.00;100485.75;5129464;27;20459;-64
2023/10/02 11:40:25;;;;;;;13.90;3.22;;;;;;;17.06;100.00;100469.06;5132421;27;20043;-64
2023/10/02 11:42:52;;;;;;;8.27;2.47;;;;;;;17.05;100.00;100485.88;5111808;28;20485;-64
2023/10/02 11:45:21;;;;;;;9.50;1.67;;;;;;;17.14;100.00;100495.84;5128426;27;20046;-64
2023/10/02 11:47:49;;;;;;;11.65;2.70;;;;;;;17.08;100.00;100494.44;5129398;27;20051;-64
2023/10/02 11:50:16;;;;;;;10.43;2.40;;;;;;;17.07;100.00;100495.41;5131868;27;20514;-64
2023/10/02 11:52:44;;;;;;;11.20;2.13;;;;;;;17.37;100.00;100499.53;5131412;27;20465;-64
2023/10/02 11:55:18;;;;;;;13.02;2.72;;;;;;;17.33;100.00;100507.78;5129251;27;20071;-64
2023/10/02 11:57:51;;;;;;;8.15;2.05;;;;;;;17.67;100.00;100500.97;5120286;27;20063;-64
2023/10/02 12:00:23;;;;;;;11.35;2.63;;;;;;;17.94;100.00;100497.34;5129525;27;20138;-64
2023/10/02 12:02:54;;;;;;;11.43;2.40;;;;;;;18.48;100.00;100506.63;5131499;27;20050;-64
2023/10/02 12:05:25;;;;;;;12.02;2.50;;;;;;;18.25;100.00;100493.28;5119700;27;20100;-66
2023/10/02 12:07:52;;;;;;;13.32;3.08;;;;;;;18.24;100.00;100493.38;5130114;27;20043;-65
2023/10/02 12:10:18;;;;;;;10.55;2.63;;;;;;;18.27;100.00;100498.47;5129096;27;20130;-64
2023/10/02 12:12:45;;;;;;;9.63;2.03;;;;;;;18.50;100.00;100489.66;5131487;27;20050;-64
2023/10/02 12:15:15;;;;;;;10.10;2.00;;;;;;;18.75;100.00;100486.00;5130850;27;20053;-64
2023/10/02 12:17:44;;;;;;;13.93;2.63;;;;;;;18.44;100.00;100487.47;5122437;27;20078;-64
2023/10/02 12:20:12;;;;;;;9.02;2.08;;;;;;;18.69;100.00;100493.56;5113234;27;20079;-64
2023/10/02 12:22:40;;;;;;;11.30;2.50;;;;;;;18.27;100.00;100490.50;5129137;27;20051;-64
2023/10/02 12:25:10;;;;;;;9.45;2.55;;;;;;;18.27;100.00;100472.78;5130079;27;20058;-64
2023/10/02 12:27:39;;;;;;;11.32;2.65;;;;;;;18.30;100.00;100477.88;5125857;27;20057;-64
2023/10/02 12:30:11;;;;;;;13.32;2.30;;;;;;;18.62;100.00;100482.56;5130209;27;20498;-64
2023/10/02 12:32:38;;;;;;;12.30;3.30;;;;;;;18.33;100.00;100466.22;5121257;27;20047;-64
2023/10/02 12:35:06;;;;;;;10.55;2.92;;;;;;;18.18;100.00;100454.94;5150402;27;20051;-64
2023/10/02 12:37:33;;;;;;;14.15;3.55;;;;;;;17.91;100.00;100450.72;5127670;27;20039;-64
2023/10/02 12:40:00;;;;;;;15.57;3.28;;;;;;;17.91;100.00;100445.41;5121343;27;20052;-64
2023/10/02 12:42:26;;;;;;;14.27;3.20;;;;;;;17.66;100.00;100446.31;5123707;27;20043;-64
2023/10/02 12:44:54;;;;;;;13.57;3.17;;;;;;;17.63;100.00;100425.34;5129850;27;20043;-64
2023/10/02 12:47:21;;;;;;;17.73;3.70;;;;;;;17.44;100.00;100434.63;5129041;27;20043;-64
2023/10/02 12:49:48;;;;;;;12.48;2.75;;;;;;;17.50;100.00;100446.56;5130993;27;20055;-64
2023/10/02 12:52:16;;;;;;;14.00;2.92;;;;;;;17.69;100.00;100442.59;5127693;27;20126;-64
2023/10/02 12:54:43;;;;;;;13.35;2.63;;;;;;;17.75;100.00;100444.81;5131171;27;20544;-64
2023/10/02 12:57:11;;;;;;;15.80;2.80;;;;;;;18.13;100.00;100457.94;5126830;27;20061;-64
2023/10/02 12:59:38;;;;;;;10.70;2.30;;;;;;;18.16;100.00;100435.66;5127040;27;20049;-66